Aeroporto :
LOGIN :

Iscrizione | Disclaimer

   EN    FR    IT 

 










Sommario :    VFR   VFR Marginale   IFR   IFR Intensivo   IFR Molto Intensivo
Visibilità : 
Base nubi : 
>= 8 km
>= 3000ft
5 / 8 km
1000 / 3000 ft
1500m / 5 km
500 / 1000 ft
800 / 1500m
200 / 500 ft
< 800m
< 200 ft
Simboli :   Temporali  Nebbia  Neve Forte  Precipitazioni Forti  Vento > 20 kt
SIGMETs :   Varie  Temporali  Ghiacco  Turbolenza  Onda orograficha  Ceneri Vulcaniche






- Altitudine del aeroporto : 359 ft
- Codice IATA : BVA


LFOB - Beauvais

ULTIMO METAR :
  • 101530Z AUTO 18012KT 9999 FEW026 BKN088 07/03 Q1019

METARs OBSOLETI :
  • 101500Z AUTO 18014KT 9999 OVC029 07/03 Q1020
  • 101430Z AUTO 18013KT 9999 FEW030 BKN110 BKN140 07/03 Q1020
  • 101400Z AUTO 20010KT 9999 SCT031 BKN110 BKN180 07/03 Q1021
  • 101330Z AUTO 20013KT CAVOK 07/03 Q1022
  • 101300Z AUTO 19011KT 160V220 CAVOK 07/03 Q1022

TAF TAF LFOB
Valido dal 10 a 00 ore il 11 a 00 ore UTC


092300Z 1000/1024 VRB02KT CAVOK
BECMG 1007/1009 10010KT
BECMG 1012/1014 18017G27KT
BECMG 1016/1018 BKN011 OVC030
TEMPO 1018/1024 RA OVC008
ATIS : +33 3 44 11 49 28



MetMap, La meteo Aeronautica in un colpo d'occhio ! - Copyright ORBIFLY Dicembre 2007 - Disclaimer

ORBIFLY MET'MAP TEAM :

Programmazione e sviluppo : Alexandra Zaïnal
Concezione : Baudouin d'Aumeries
Aiuto per la programmazione : Marc-Olivier Méhu
Supporto tecnico e logistico : Manuel Goepfert
Aiuto per la traduzione : Arnaldo La Scala

Contatto : metmap@orbifly.com




FONTI E CREDITI :

   NOAA